Time,TemperatureF,DewpointF,PressureIn,WindDirection,WindDirectionDegrees,WindSpeedMPH,WindSpeedGustMPH,Humidity,HourlyPrecipIn,Conditions,Clouds,dailyrainin,SoftwareType,DateUTC
2014-12-19 00:11:00,15.2,12.0,30.78,NW,310,10.0,13.0,86,0.00,,,0.00,weatherlink.com 1.10,2014-12-19 07:11:00,
2014-12-19 00:26:00,14.9,12.0,30.78,WNW,303,9.0,13.0,88,0.00,,,0.00,weatherlink.com 1.10,2014-12-19 07:26:00,
2014-12-19 00:41:00,14.4,11.0,30.78,NW,315,4.0,9.0,87,0.00,,,0.00,weatherlink.com 1.10,2014-12-19 07:41:00,
2014-12-19 00:56:00,14.2,11.0,30.78,WNW,288,2.0,7.0,88,0.00,,,0.00,weatherlink.com 1.10,2014-12-19 07:56:00,
2014-12-19 01:12:00,13.6,11.0,30.77,West,275,8.0,9.0,88,0.00,,,0.00,weatherlink.com 1.10,2014-12-19 08:12:00,
2014-12-19 01:27:00,17.6,15.0,30.77,West,274,13.0,15.0,89,0.00,,,0.00,weatherlink.com 1.10,2014-12-19 08:27:00,
2014-12-19 01:42:00,17.8,14.0,30.76,WNW,287,13.0,14.0,86,0.00,,,0.00,weatherlink.com 1.10,2014-12-19 08:42:00,
2014-12-19 01:57:00,17.3,14.0,30.76,West,271,13.0,15.0,86,0.00,,,0.00,weatherlink.com 1.10,2014-12-19 08:57:00,
2014-12-19 02:12:00,-999.0,-99.9,30.76,North,-999,-999.0,-999.0,-999,0.00,,,0.00,weatherlink.com 1.10,2014-12-19 09:12:00,
2014-12-19 02:27:00,-999.0,-99.9,30.75,North,-999,-999.0,-999.0,-999,0.00,,,0.00,weatherlink.com 1.10,2014-12-19 09:27:00,
2014-12-19 02:42:00,-999.0,-99.9,30.73,North,-999,-999.0,-999.0,-999,0.00,,,0.00,weatherlink.com 1.10,2014-12-19 09:42:00,
2014-12-19 02:57:00,-999.0,-99.9,30.72,North,-999,-999.0,-999.0,-999,0.00,,,0.00,weatherlink.com 1.10,2014-12-19 09:57:00,
2014-12-19 03:12:00,-999.0,-99.9,30.71,North,-999,-999.0,-999.0,-999,0.00,,,0.00,weatherlink.com 1.10,2014-12-19 10:12:00,
2014-12-19 03:27:00,-999.0,-99.9,30.70,North,-999,-999.0,-999.0,-999,0.00,,,0.00,weatherlink.com 1.10,2014-12-19 10:27:00,
2014-12-19 03:42:00,-999.0,-99.9,30.70,North,-999,-999.0,-999.0,-999,0.00,,,0.00,weatherlink.com 1.10,2014-12-19 10:42:00,
2014-12-19 03:57:00,-999.0,-99.9,30.70,North,-999,-999.0,-999.0,-999,0.00,,,0.00,weatherlink.com 1.10,2014-12-19 10:57:00,
2014-12-19 04:12:00,-999.0,-99.9,30.70,North,-999,-999.0,-999.0,-999,0.00,,,0.00,weatherlink.com 1.10,2014-12-19 11:12:00,
2014-12-19 04:28:00,-999.0,-99.9,30.69,North,-999,-999.0,-999.0,-999,0.00,,,0.00,weatherlink.com 1.10,2014-12-19 11:28:00,
2014-12-19 04:43:00,23.2,19.0,30.70,West,264,16.0,19.0,84,0.00,,,0.00,weatherlink.com 1.10,2014-12-19 11:43:00,
2014-12-19 04:58:00,22.9,19.0,30.71,West,261,15.0,18.0,85,0.00,,,0.00,weatherlink.com 1.10,2014-12-19 11:58:00,
2014-12-19 05:13:00,22.9,19.0,30.70,WSW,252,17.0,21.0,85,0.00,,,0.00,weatherlink.com 1.10,2014-12-19 12:13:00,
2014-12-19 05:28:00,22.7,19.0,30.71,West,277,16.0,21.0,84,0.00,,,0.00,weatherlink.com 1.10,2014-12-19 12:28:00,
2014-12-19 05:43:00,-999.0,-99.9,30.71,North,-999,-999.0,-999.0,-999,0.00,,,0.00,weatherlink.com 1.10,2014-12-19 12:43:00,
2014-12-19 05:58:00,-999.0,-99.9,30.70,North,-999,-999.0,-999.0,-999,0.00,,,0.00,weatherlink.com 1.10,2014-12-19 12:58:00,
2014-12-19 06:13:00,-999.0,-99.9,30.71,North,-999,-999.0,-999.0,-999,0.00,,,0.00,weatherlink.com 1.10,2014-12-19 13:13:00,
2014-12-19 06:28:00,-999.0,-99.9,30.71,North,-999,-999.0,-999.0,-999,0.00,,,0.00,weatherlink.com 1.10,2014-12-19 13:28:00,
2014-12-19 06:43:00,-999.0,-99.9,30.71,North,-999,-999.0,-999.0,-999,0.00,,,0.00,weatherlink.com 1.10,2014-12-19 13:43:00,